createdAt,value
2023-01-26T00:02:02.782Z,17.07
2023-01-26T00:04:37.160Z,16.90
2023-01-26T00:07:10.209Z,17.70
2023-01-26T00:09:43.218Z,17.43
2023-01-26T00:12:16.210Z,16.37
2023-01-26T00:14:51.966Z,16.40
2023-01-26T00:17:28.053Z,16.37
2023-01-26T00:20:02.465Z,16.10
2023-01-26T00:22:35.472Z,16.10
2023-01-26T00:25:09.362Z,17.20
2023-01-26T00:27:42.577Z,17.17
2023-01-26T00:30:16.765Z,15.07
2023-01-26T00:32:49.813Z,17.37
2023-01-26T00:35:24.351Z,15.47
2023-01-26T00:37:57.427Z,16.47
2023-01-26T00:40:30.455Z,17.23
2023-01-26T00:43:03.482Z,17.43
2023-01-26T00:45:36.863Z,17.53
2023-01-26T00:48:09.918Z,17.00
2023-01-26T00:50:44.317Z,15.67
2023-01-26T00:53:17.510Z,17.20
2023-01-26T00:55:50.541Z,16.87
2023-01-26T00:58:23.580Z,17.87
2023-01-26T01:00:56.625Z,15.77
2023-01-26T01:03:29.674Z,17.07
2023-01-26T01:06:04.185Z,16.40
2023-01-26T01:08:37.286Z,16.73
2023-01-26T01:11:12.614Z,17.47
2023-01-26T01:13:45.680Z,16.17
2023-01-26T01:16:19.205Z,17.90
2023-01-26T01:18:54.423Z,17.40
2023-01-26T01:21:29.005Z,16.53
2023-01-26T01:24:02.224Z,17.67
2023-01-26T01:26:35.266Z,16.87
2023-01-26T01:29:08.820Z,16.47
2023-01-26T01:31:43.354Z,17.87
2023-01-26T01:34:16.552Z,18.07
2023-01-26T01:36:50.980Z,17.83
2023-01-26T01:39:24.047Z,17.67
2023-01-26T01:41:57.064Z,18.17
2023-01-26T01:44:30.081Z,17.77
2023-01-26T01:47:07.973Z,17.37
2023-01-26T01:49:46.907Z,17.03
2023-01-26T01:52:29.861Z,16.00
2023-01-26T01:55:09.846Z,15.70
2023-01-26T01:57:46.851Z,16.87
2023-01-26T02:00:23.581Z,17.53
2023-01-26T02:03:14.931Z,17.40
2023-01-26T02:05:56.869Z,15.57
2023-01-26T02:08:35.742Z,16.33
2023-01-26T02:11:14.153Z,16.33
2023-01-26T02:13:49.908Z,14.60
2023-01-26T02:16:23.389Z,14.80
2023-01-26T02:18:56.495Z,14.80
2023-01-26T02:21:31.339Z,15.03
2023-01-26T02:24:14.172Z,13.17
2023-01-26T02:26:49.375Z,13.80
2023-01-26T02:29:23.578Z,14.17
2023-01-26T02:31:57.040Z,13.53
2023-01-26T02:34:30.151Z,13.90
2023-01-26T02:37:03.166Z,13.90
2023-01-26T02:39:47.263Z,14.87
2023-01-26T02:42:39.101Z,14.77
2023-01-26T02:45:16.220Z,14.03
2023-01-26T02:47:49.446Z,13.93
2023-01-26T02:50:21.560Z,14.17
2023-01-26T02:52:55.131Z,14.20
2023-01-26T02:55:28.709Z,14.53
2023-01-26T02:58:05.991Z,14.83
2023-01-26T03:00:41.874Z,15.67
2023-01-26T03:03:18.296Z,16.30
2023-01-26T03:05:51.483Z,16.37
2023-01-26T03:08:24.496Z,16.73
2023-01-26T03:10:58.679Z,16.23
2023-01-26T03:13:33.157Z,18.30
2023-01-26T03:16:08.949Z,19.00
2023-01-26T03:18:59.635Z,19.37
2023-01-26T03:21:50.214Z,19.90
2023-01-26T03:24:40.879Z,18.03
2023-01-26T03:27:28.835Z,16.93
2023-01-26T03:30:03.225Z,17.73
2023-01-26T03:32:36.294Z,17.40
2023-01-26T03:35:15.112Z,19.40
2023-01-26T03:37:54.894Z,19.23
2023-01-26T03:40:45.787Z,19.87
2023-01-26T03:43:36.334Z,20.07
2023-01-26T03:46:28.228Z,19.03
2023-01-26T03:49:19.050Z,18.30
2023-01-26T03:52:09.577Z,18.37
2023-01-26T03:55:00.198Z,17.90
2023-01-26T03:57:33.202Z,17.67
2023-01-26T04:00:08.247Z,16.80
2023-01-26T04:03:00.461Z,17.83
2023-01-26T04:05:51.286Z,16.90
2023-01-26T04:08:24.700Z,17.57
2023-01-26T04:10:58.214Z,17.40
2023-01-26T04:13:49.034Z,17.43
2023-01-26T04:16:39.782Z,17.77
2023-01-26T04:19:32.030Z,17.03
2023-01-26T04:22:05.055Z,17.00
2023-01-26T04:24:38.105Z,17.43
2023-01-26T04:27:11.765Z,16.87
2023-01-26T04:29:44.826Z,16.03
2023-01-26T04:32:17.943Z,15.63
2023-01-26T04:34:52.561Z,15.63
2023-01-26T04:37:26.268Z,15.23
2023-01-26T04:39:59.278Z,16.73
2023-01-26T04:42:32.424Z,15.43
2023-01-26T04:45:06.459Z,14.43
2023-01-26T04:47:39.582Z,14.50
2023-01-26T04:50:14.185Z,14.60
2023-01-26T04:52:47.417Z,13.60
2023-01-26T04:55:20.474Z,12.73
2023-01-26T04:57:53.496Z,11.40
2023-01-26T05:00:26.519Z,11.93
2023-01-26T05:02:59.552Z,12.67
2023-01-26T05:05:37.804Z,12.60
2023-01-26T05:08:10.859Z,12.27
2023-01-26T05:10:44.184Z,12.93
2023-01-26T05:13:17.223Z,11.57
2023-01-26T05:15:50.317Z,13.40
2023-01-26T05:18:23.337Z,13.93
2023-01-26T05:20:58.195Z,12.73
2023-01-26T05:23:31.225Z,13.77
2023-01-26T05:26:05.139Z,13.37
2023-01-26T05:28:38.273Z,13.17
2023-01-26T05:31:11.334Z,13.47
2023-01-26T05:33:44.446Z,12.60
2023-01-26T05:36:18.821Z,12.80
2023-01-26T05:38:51.852Z,13.20
2023-01-26T05:41:24.975Z,12.70
2023-01-26T05:43:57.968Z,13.30
2023-01-26T05:46:31.015Z,14.13
2023-01-26T05:49:04.024Z,14.03
2023-01-26T05:51:38.408Z,13.40
2023-01-26T05:54:11.446Z,13.40
2023-01-26T05:56:44.469Z,14.67
2023-01-26T05:59:17.951Z,14.03
2023-01-26T06:01:50.964Z,15.27
2023-01-26T06:04:24.208Z,13.60
2023-01-26T06:07:01.182Z,14.43
2023-01-26T06:09:34.336Z,15.07
2023-01-26T06:12:08.520Z,14.70
2023-01-26T06:14:41.555Z,13.37
2023-01-26T06:17:17.017Z,14.87
2023-01-26T06:19:50.151Z,14.17
2023-01-26T06:22:24.603Z,15.43
2023-01-26T06:24:58.067Z,14.40
2023-01-26T06:27:31.078Z,15.00
2023-01-26T06:30:05.466Z,12.87
2023-01-26T06:32:38.764Z,14.63
2023-01-26T06:35:11.802Z,15.23
2023-01-26T06:37:46.566Z,14.57
2023-01-26T06:40:20.047Z,14.60
2023-01-26T06:42:53.285Z,14.73
2023-01-26T06:45:26.336Z,14.30
2023-01-26T06:47:59.388Z,15.10
2023-01-26T06:50:34.678Z,15.63
2023-01-26T06:53:27.992Z,15.57
2023-01-26T06:56:01.102Z,15.47
2023-01-26T06:58:34.133Z,14.70
2023-01-26T07:01:07.663Z,15.23
2023-01-26T07:03:40.690Z,14.60
2023-01-26T07:06:13.679Z,15.03
2023-01-26T07:08:48.262Z,14.57
2023-01-26T07:11:22.135Z,16.80
2023-01-26T07:13:55.128Z,14.90
2023-01-26T07:16:28.518Z,15.97
2023-01-26T07:19:01.638Z,15.60
2023-01-26T07:21:35.503Z,16.57
2023-01-26T07:24:10.703Z,15.43
2023-01-26T07:26:43.690Z,14.33
2023-01-26T07:29:16.697Z,13.80
2023-01-26T07:31:49.820Z,14.57
2023-01-26T07:34:22.911Z,15.93
2023-01-26T07:36:55.920Z,15.53
2023-01-26T07:39:30.295Z,13.93
2023-01-26T07:42:03.291Z,13.10
2023-01-26T07:44:36.308Z,13.23
2023-01-26T07:47:09.800Z,12.83
2023-01-26T07:49:43.074Z,13.67
2023-01-26T07:52:16.119Z,13.10
2023-01-26T07:54:50.646Z,14.13
2023-01-26T07:57:23.677Z,14.70
2023-01-26T07:59:56.749Z,15.33
2023-01-26T08:02:29.773Z,14.13
2023-01-26T08:05:03.449Z,14.67
2023-01-26T08:07:36.406Z,14.67
2023-01-26T08:10:13.776Z,13.70
2023-01-26T08:12:46.879Z,13.70
2023-01-26T08:15:20.032Z,13.30
2023-01-26T08:17:54.757Z,12.60
2023-01-26T08:20:27.865Z,11.00
2023-01-26T08:23:00.913Z,9.90
2023-01-26T08:25:35.377Z,9.93
2023-01-26T08:28:08.384Z,11.67
2023-01-26T08:30:42.132Z,13.13
2023-01-26T08:33:15.230Z,11.40
2023-01-26T08:35:48.253Z,11.60
2023-01-26T08:38:21.219Z,14.00
2023-01-26T08:40:55.565Z,15.30
2023-01-26T08:43:29.078Z,17.33
2023-01-26T08:46:02.511Z,15.53
2023-01-26T08:48:35.918Z,16.53
2023-01-26T08:51:09.777Z,15.10
2023-01-26T08:53:42.824Z,15.37
2023-01-26T08:56:17.229Z,17.23
2023-01-26T08:58:50.361Z,16.03
2023-01-26T09:01:23.385Z,16.77
2023-01-26T09:03:56.597Z,16.40
2023-01-26T09:06:30.604Z,17.00
2023-01-26T09:09:03.635Z,16.30
2023-01-26T09:11:38.005Z,16.57
2023-01-26T09:14:11.010Z,15.90
2023-01-26T09:16:44.056Z,14.30
2023-01-26T09:19:17.225Z,13.90
2023-01-26T09:21:53.967Z,13.63
2023-01-26T09:24:27.316Z,13.57
2023-01-26T09:27:01.707Z,14.53
2023-01-26T09:29:34.751Z,13.07
2023-01-26T09:32:07.841Z,13.30
2023-01-26T09:34:40.908Z,12.97
2023-01-26T09:37:14.165Z,11.27
2023-01-26T09:39:47.436Z,8.90
2023-01-26T09:42:58.965Z,8.23
2023-01-26T09:45:39.861Z,9.33
2023-01-26T09:48:25.435Z,8.70
2023-01-26T09:51:05.116Z,8.67
2023-01-26T09:53:47.687Z,9.20
2023-01-26T09:56:26.167Z,8.67
2023-01-26T09:59:06.664Z,8.93
2023-01-26T10:01:46.625Z,9.77
2023-01-26T10:04:32.693Z,9.40
2023-01-26T10:07:10.964Z,10.03
2023-01-26T10:09:48.892Z,9.73
2023-01-26T10:12:27.175Z,8.97
2023-01-26T10:15:08.351Z,9.97
2023-01-26T10:17:44.368Z,9.67
2023-01-26T10:20:30.243Z,10.60
2023-01-26T10:23:08.169Z,10.90
2023-01-26T10:25:44.320Z,10.63
2023-01-26T10:28:20.723Z,10.10
2023-01-26T10:30:55.728Z,9.63
2023-01-26T10:33:34.487Z,8.70
2023-01-26T10:36:11.049Z,10.37
2023-01-26T10:38:45.824Z,10.93
2023-01-26T10:41:29.626Z,10.83
2023-01-26T10:44:05.663Z,10.80
2023-01-26T10:46:42.449Z,10.90
2023-01-26T10:49:17.789Z,10.23
2023-01-26T10:52:10.913Z,11.13
2023-01-26T10:54:44.807Z,11.20
2023-01-26T10:57:22.768Z,12.67
2023-01-26T10:59:59.139Z,11.40
2023-01-26T11:02:35.328Z,11.07
2023-01-26T11:05:24.022Z,11.30
2023-01-26T11:08:00.455Z,11.83
2023-01-26T11:10:36.150Z,11.47
2023-01-26T11:13:20.442Z,10.83
2023-01-26T11:16:07.657Z,11.03
2023-01-26T11:18:55.746Z,11.47
2023-01-26T11:21:35.945Z,11.10
2023-01-26T11:24:17.597Z,13.17
2023-01-26T11:27:20.722Z,12.60
2023-01-26T11:30:41.433Z,11.70
2023-01-26T11:33:29.631Z,12.53
2023-01-26T11:36:13.695Z,13.30
2023-01-26T11:38:53.861Z,11.67
2023-01-26T11:41:40.128Z,11.47
2023-01-26T11:44:48.909Z,12.37
2023-01-26T11:47:37.104Z,11.10
2023-01-26T11:50:36.096Z,11.40
2023-01-26T11:53:26.690Z,11.60
2023-01-26T11:56:14.414Z,12.57
2023-01-26T11:58:54.364Z,12.87
2023-01-26T12:01:31.947Z,12.43
2023-01-26T12:04:05.285Z,12.80
2023-01-26T12:06:41.823Z,12.17
2023-01-26T12:09:23.017Z,12.30
2023-01-26T12:12:04.715Z,16.30
2023-01-26T12:14:43.645Z,15.03
2023-01-26T12:17:31.595Z,12.03
2023-01-26T12:20:21.499Z,12.60
2023-01-26T12:23:04.953Z,13.37
2023-01-26T12:25:42.654Z,11.03
2023-01-26T12:28:22.602Z,11.73
2023-01-26T12:31:04.606Z,12.70
2023-01-26T12:33:38.921Z,17.33
2023-01-26T12:36:29.408Z,15.97
2023-01-26T12:39:14.221Z,16.70
2023-01-26T12:42:17.250Z,13.47
2023-01-26T12:44:56.099Z,11.93
2023-01-26T12:47:35.704Z,11.50
2023-01-26T12:50:19.756Z,9.63
2023-01-26T12:52:58.983Z,8.97
2023-01-26T12:55:40.355Z,10.03
2023-01-26T12:58:19.787Z,9.83
2023-01-26T13:00:59.548Z,11.00
2023-01-26T13:03:35.143Z,11.00
2023-01-26T13:06:21.749Z,11.73
2023-01-26T13:09:06.022Z,10.90
2023-01-26T13:11:45.807Z,10.00
2023-01-26T13:14:39.611Z,10.53
2023-01-26T13:17:52.817Z,10.67
2023-01-26T13:20:52.667Z,9.97
2023-01-26T13:23:44.305Z,9.50
2023-01-26T13:26:45.561Z,10.47
2023-01-26T13:29:36.216Z,11.70
2023-01-26T13:32:55.917Z,11.73
2023-01-26T13:35:30.923Z,11.60
2023-01-26T13:38:15.231Z,10.73
2023-01-26T13:40:50.859Z,12.23
2023-01-26T13:43:37.091Z,12.53
2023-01-26T13:46:17.921Z,23.23
2023-01-26T13:48:52.562Z,22.20
2023-01-26T13:51:28.135Z,15.33
2023-01-26T13:54:04.713Z,14.63
2023-01-26T13:56:39.829Z,14.93
2023-01-26T13:59:16.501Z,15.13
2023-01-26T14:01:52.997Z,18.23
2023-01-26T14:04:27.925Z,18.67
2023-01-26T14:07:06.256Z,16.00
2023-01-26T14:09:47.297Z,15.43
2023-01-26T14:12:23.852Z,13.67
2023-01-26T14:15:01.318Z,14.67
2023-01-26T14:17:47.428Z,15.17
2023-01-26T14:20:28.156Z,13.97
2023-01-26T14:23:13.871Z,13.27
2023-01-26T14:25:50.261Z,11.90
2023-01-26T14:28:28.396Z,12.83
2023-01-26T14:31:08.658Z,13.40
2023-01-26T14:33:43.291Z,14.10
2023-01-26T14:36:18.448Z,16.40
2023-01-26T14:38:54.232Z,18.37
2023-01-26T14:41:29.950Z,16.73
2023-01-26T14:44:05.905Z,15.30
2023-01-26T14:46:52.212Z,13.20
2023-01-26T14:49:43.166Z,14.27
2023-01-26T14:52:25.024Z,13.20
2023-01-26T14:55:05.196Z,13.77
2023-01-26T14:57:38.328Z,14.40
2023-01-26T15:00:25.749Z,13.93
2023-01-26T15:03:01.882Z,12.03
2023-01-26T15:05:39.018Z,16.77
2023-01-26T15:08:22.465Z,17.23
2023-01-26T15:11:18.175Z,17.30
2023-01-26T15:13:55.855Z,16.63
2023-01-26T15:16:28.911Z,17.73
2023-01-26T15:19:04.308Z,18.30
2023-01-26T15:21:40.635Z,17.17
2023-01-26T15:24:16.165Z,17.47
2023-01-26T15:26:51.567Z,17.50
2023-01-26T15:29:31.784Z,14.60
2023-01-26T15:32:05.360Z,15.93
2023-01-26T15:34:42.131Z,14.57
2023-01-26T15:37:32.562Z,15.90
2023-01-26T15:40:08.591Z,17.73
2023-01-26T15:42:41.711Z,16.37
2023-01-26T15:45:25.711Z,14.97
2023-01-26T15:48:01.612Z,14.93
2023-01-26T15:50:34.647Z,13.60
2023-01-26T15:53:14.562Z,13.30
2023-01-26T15:55:52.492Z,13.40
2023-01-26T15:58:26.416Z,13.93
2023-01-26T16:00:59.809Z,16.23
2023-01-26T16:03:32.842Z,14.43
2023-01-26T16:06:06.267Z,14.60
2023-01-26T16:08:40.585Z,15.87
2023-01-26T16:11:14.539Z,14.83
2023-01-26T16:14:01.984Z,13.63
2023-01-26T16:16:36.121Z,14.73
2023-01-26T16:19:10.051Z,14.73
2023-01-26T16:21:45.997Z,16.77
2023-01-26T16:24:20.436Z,15.67
2023-01-26T16:26:54.819Z,16.50
2023-01-26T16:29:27.856Z,18.83
2023-01-26T16:32:01.527Z,19.90
2023-01-26T16:34:34.601Z,21.60
2023-01-26T16:37:07.661Z,25.53
2023-01-26T16:39:42.028Z,23.83
2023-01-26T16:42:19.962Z,19.63
2023-01-26T16:44:53.039Z,17.33
2023-01-26T16:47:26.163Z,19.97
2023-01-26T16:49:59.254Z,27.93
2023-01-26T16:52:32.227Z,19.47
2023-01-26T16:55:13.000Z,18.83
2023-01-26T16:57:49.832Z,18.73
2023-01-26T17:00:24.670Z,19.10
2023-01-26T17:02:57.710Z,19.63
2023-01-26T17:05:31.350Z,19.53
2023-01-26T17:08:04.719Z,21.23
2023-01-26T17:10:51.878Z,19.13
2023-01-26T17:13:28.719Z,19.27
2023-01-26T17:16:01.936Z,17.13
2023-01-26T17:18:35.006Z,16.90
2023-01-26T17:21:08.050Z,15.90
2023-01-26T17:23:44.446Z,17.87
2023-01-26T17:26:19.873Z,17.47
2023-01-26T17:28:56.020Z,18.30
2023-01-26T17:31:29.216Z,17.37
2023-01-26T17:34:02.387Z,19.00
2023-01-26T17:36:35.443Z,17.67
2023-01-26T17:39:10.029Z,17.30
2023-01-26T17:41:44.437Z,17.87
2023-01-26T17:44:17.572Z,16.50
2023-01-26T17:46:50.622Z,17.03
2023-01-26T17:49:24.950Z,16.73
2023-01-26T17:51:57.971Z,18.27
2023-01-26T17:54:31.055Z,18.30
2023-01-26T17:57:05.484Z,23.53
2023-01-26T17:59:38.517Z,21.00
2023-01-26T18:02:12.468Z,19.87
2023-01-26T18:04:45.637Z,19.53
2023-01-26T18:07:18.676Z,19.87
2023-01-26T18:09:51.817Z,21.00
2023-01-26T18:12:26.819Z,19.40
2023-01-26T18:14:59.860Z,20.37
2023-01-26T18:17:32.848Z,18.87
2023-01-26T18:20:07.303Z,21.97
2023-01-26T18:22:40.314Z,21.43
2023-01-26T18:25:13.516Z,19.83
2023-01-26T18:27:48.093Z,21.07
2023-01-26T18:30:21.371Z,24.23
2023-01-26T18:32:54.377Z,26.73
2023-01-26T18:35:27.572Z,21.17
2023-01-26T18:38:00.685Z,19.13
2023-01-26T18:40:33.782Z,20.43
2023-01-26T18:43:09.620Z,19.27
2023-01-26T18:45:43.152Z,20.53
2023-01-26T18:48:16.175Z,19.23
2023-01-26T18:50:49.956Z,22.27
2023-01-26T18:53:22.996Z,21.07
2023-01-26T18:56:05.121Z,20.70
2023-01-26T18:58:40.955Z,22.17
2023-01-26T19:01:16.977Z,20.23
2023-01-26T19:03:54.987Z,20.37
2023-01-26T19:06:30.910Z,21.83
2023-01-26T19:09:07.091Z,19.80
2023-01-26T19:11:40.683Z,29.97
2023-01-26T19:14:15.350Z,19.10
2023-01-26T19:16:49.125Z,18.23
2023-01-26T19:19:22.353Z,19.03
2023-01-26T19:21:55.415Z,26.90
2023-01-26T19:24:28.587Z,25.57
2023-01-26T19:27:01.632Z,20.77
2023-01-26T19:29:36.004Z,21.83
2023-01-26T19:32:09.084Z,21.70
2023-01-26T19:34:42.383Z,21.07
2023-01-26T19:37:15.485Z,20.10
2023-01-26T19:39:49.478Z,19.07
2023-01-26T19:42:22.545Z,17.40
2023-01-26T19:44:56.919Z,18.23
2023-01-26T19:47:29.948Z,18.47
2023-01-26T19:50:03.029Z,18.00
2023-01-26T19:52:36.054Z,18.80
2023-01-26T19:55:09.370Z,18.20
2023-01-26T19:57:42.550Z,18.47
2023-01-26T20:00:18.449Z,18.73
2023-01-26T20:02:51.466Z,20.40
2023-01-26T20:05:24.487Z,20.43
2023-01-26T20:07:57.529Z,18.77
2023-01-26T20:10:30.555Z,19.70
2023-01-26T20:13:03.569Z,19.73
2023-01-26T20:15:37.951Z,19.63
2023-01-26T20:18:10.979Z,20.50
2023-01-26T20:20:43.995Z,20.73
2023-01-26T20:23:17.064Z,19.23
2023-01-26T20:25:51.548Z,19.90
2023-01-26T20:28:24.644Z,19.93
2023-01-26T20:31:05.960Z,19.33
2023-01-26T20:33:39.752Z,18.87
2023-01-26T20:36:16.510Z,17.47
2023-01-26T20:38:50.565Z,20.63
2023-01-26T20:41:27.410Z,20.03
2023-01-26T20:44:04.321Z,19.17
2023-01-26T20:46:41.299Z,19.27
2023-01-26T20:49:18.487Z,18.00
2023-01-26T20:51:51.605Z,19.33
2023-01-26T20:54:24.621Z,18.47
2023-01-26T20:56:57.668Z,17.80
2023-01-26T20:59:31.154Z,18.23
2023-01-26T21:02:05.754Z,17.87
2023-01-26T21:04:38.790Z,18.17
2023-01-26T21:07:11.936Z,17.27
2023-01-26T21:09:44.990Z,17.93
2023-01-26T21:12:18.037Z,17.77
2023-01-26T21:14:51.176Z,16.77
2023-01-26T21:17:26.037Z,16.87
2023-01-26T21:19:59.086Z,17.60
2023-01-26T21:22:32.155Z,18.50
2023-01-26T21:25:06.688Z,17.47
2023-01-26T21:27:39.703Z,17.93
2023-01-26T21:30:14.384Z,17.50
2023-01-26T21:32:49.316Z,17.07
2023-01-26T21:35:22.377Z,17.17
2023-01-26T21:37:55.403Z,16.73
2023-01-26T21:40:28.421Z,18.13
2023-01-26T21:43:01.447Z,17.13
2023-01-26T21:45:54.398Z,19.03
2023-01-26T21:48:31.676Z,19.17
2023-01-26T21:51:22.578Z,19.87
2023-01-26T21:53:57.254Z,17.90
2023-01-26T21:56:30.600Z,17.20
2023-01-26T21:59:04.685Z,16.67
2023-01-26T22:01:40.901Z,16.00
2023-01-26T22:04:17.961Z,16.70
2023-01-26T22:06:52.096Z,17.73
2023-01-26T22:09:25.849Z,16.50
2023-01-26T22:11:58.850Z,17.23
2023-01-26T22:14:31.995Z,17.20
2023-01-26T22:17:05.007Z,18.10
2023-01-26T22:19:39.411Z,18.50
2023-01-26T22:22:12.647Z,19.93
2023-01-26T22:24:45.675Z,19.43
2023-01-26T22:27:18.657Z,17.17
2023-01-26T22:29:51.660Z,18.47
2023-01-26T22:32:24.722Z,18.20
2023-01-26T22:34:59.205Z,17.30
2023-01-26T22:37:32.249Z,17.37
2023-01-26T22:40:06.505Z,18.37
2023-01-26T22:42:39.721Z,17.77
2023-01-26T22:45:13.912Z,17.53
2023-01-26T22:47:48.812Z,17.00
2023-01-26T22:50:23.171Z,17.67
2023-01-26T22:52:57.371Z,18.30
2023-01-26T22:55:30.359Z,18.03
2023-01-26T22:58:04.610Z,18.43
2023-01-26T23:00:38.308Z,18.40
2023-01-26T23:03:11.329Z,18.53
2023-01-26T23:05:45.998Z,17.10
2023-01-26T23:08:19.046Z,16.83
2023-01-26T23:10:52.044Z,18.17
2023-01-26T23:13:25.149Z,17.63
2023-01-26T23:15:58.205Z,17.67
2023-01-26T23:18:31.416Z,18.73
2023-01-26T23:21:06.984Z,17.80
2023-01-26T23:23:40.981Z,19.00
2023-01-26T23:26:14.102Z,19.27
2023-01-26T23:28:47.782Z,18.87
2023-01-26T23:31:21.460Z,19.47
2023-01-26T23:33:54.497Z,18.30
2023-01-26T23:36:28.959Z,19.13
2023-01-26T23:39:01.949Z,19.07
2023-01-26T23:41:35.003Z,19.03
2023-01-26T23:44:08.015Z,17.63
2023-01-26T23:46:41.187Z,18.27
2023-01-26T23:49:14.257Z,19.83
2023-01-26T23:51:48.661Z,19.60
2023-01-26T23:54:21.679Z,19.87
2023-01-26T23:56:54.747Z,19.77
2023-01-26T23:59:27.776Z,20.37
